Time;durP1;ratioP1;P1;durP2;ratioP2;P2;SDS_P1;SDS_P2;PMS_P1;PMS_P2;Temp;Humidity;BMP_temperature;BMP_pressure;BME280_temperature;BME280_humidity;BME280_pressure;Samples;Min_cycle;Max_cycle;Signal;HPM_P1;HPM_P2
2022/08/05 00:02:19;;;;;;;4.30;3.77;;;22.70;84.70;;;;;;5006215;28;20438;-66
2022/08/05 00:04:46;;;;;;;6.10;3.33;;;22.70;84.70;;;;;;4994145;28;20444;-66
2022/08/05 00:07:13;;;;;;;4.27;3.53;;;22.70;84.90;;;;;;4996772;28;20435;-66
2022/08/05 00:09:40;;;;;;;7.50;3.67;;;22.60;85.60;;;;;;5013521;28;20447;-66
2022/08/05 00:12:09;;;;;;;3.60;3.03;;;22.60;84.90;;;;;;5009169;28;20961;-66
2022/08/05 00:14:36;;;;;;;4.30;3.63;;;22.60;85.00;;;;;;4994623;28;20494;-68
2022/08/05 00:17:03;;;;;;;5.23;3.70;;;22.60;84.90;;;;;;5012616;28;20474;-67
2022/08/05 00:19:30;;;;;;;5.23;3.70;;;22.60;85.80;;;;;;5011122;28;20462;-67
2022/08/05 00:21:57;;;;;;;8.23;4.20;;;22.50;85.70;;;;;;4993924;28;20525;-66
2022/08/05 00:24:26;;;;;;;5.90;3.87;;;22.50;86.20;;;;;;4993246;28;20529;-71
2022/08/05 00:26:53;;;;;;;5.77;3.80;;;22.50;86.40;;;;;;4993589;28;20443;-66
2022/08/05 00:29:24;;;;;;;3.97;3.20;;;22.40;86.10;;;;;;4993500;28;20475;-66
2022/08/05 00:31:51;;;;;;;5.00;3.80;;;22.40;86.10;;;;;;5009081;28;20483;-67
2022/08/05 00:34:18;;;;;;;4.20;3.20;;;22.40;86.10;;;;;;4991977;28;20475;-66
2022/08/05 00:36:50;;;;;;;4.50;3.63;;;22.30;87.50;;;;;;5010012;28;20526;-66
2022/08/05 00:39:17;;;;;;;4.90;4.30;;;22.10;86.80;;;;;;5012722;28;20932;-66
2022/08/05 00:41:46;;;;;;;4.73;3.27;;;22.00;86.90;;;;;;4995367;28;20527;-66
2022/08/05 00:44:13;;;;;;;11.77;4.30;;;21.90;87.10;;;;;;4993430;28;21053;-66
2022/08/05 00:46:42;;;;;;;5.17;4.50;;;21.70;88.80;;;;;;5007558;28;20505;-66
2022/08/05 00:49:09;;;;;;;6.50;4.20;;;21.50;89.90;;;;;;5012975;28;20974;-66
2022/08/05 00:51:35;;;;;;;5.40;4.60;;;21.40;90.70;;;;;;4996792;28;20566;-66
2022/08/05 00:54:03;;;;;;;4.73;4.10;;;21.30;90.40;;;;;;4992367;28;20625;-66
2022/08/05 00:56:30;;;;;;;5.60;4.23;;;21.30;90.50;;;;;;5005214;28;20952;-65
2022/08/05 00:58:57;;;;;;;4.97;4.43;;;21.40;90.60;;;;;;5013156;28;20492;-65
2022/08/05 01:01:24;;;;;;;4.13;3.60;;;21.30;90.50;;;;;;4999845;28;20525;-66
2022/08/05 01:03:52;;;;;;;6.00;4.03;;;21.40;90.50;;;;;;4993439;28;20447;-65
2022/08/05 01:06:19;;;;;;;7.00;4.50;;;21.40;90.50;;;;;;5001881;28;20450;-66
2022/08/05 01:08:46;;;;;;;6.33;3.40;;;21.40;90.60;;;;;;5012672;28;21022;-66
2022/08/05 01:11:17;;;;;;;4.80;3.67;;;21.40;90.70;;;;;;5001490;28;20498;-66
2022/08/05 01:13:53;;;;;;;4.57;3.40;;;21.40;90.70;;;;;;4993353;28;20477;-66
2022/08/05 01:16:26;;;;;;;3.43;3.07;;;21.40;90.70;;;;;;5001370;28;20474;-67
2022/08/05 01:19:11;;;;;;;7.03;4.53;;;21.40;90.80;;;;;;5012655;28;20505;-66
2022/08/05 01:21:57;;;;;;;5.93;3.60;;;21.40;90.90;;;;;;5000418;28;20466;-66
2022/08/05 01:24:38;;;;;;;4.10;3.20;;;21.40;90.90;;;;;;4992686;28;20481;-66
2022/08/05 01:27:13;;;;;;;5.23;3.20;;;21.40;91.30;;;;;;5006234;28;20434;-67
2022/08/05 01:29:46;;;;;;;6.33;4.10;;;21.40;91.00;;;;;;5012407;28;20446;-66
2022/08/05 01:32:18;;;;;;;7.30;4.00;;;21.40;91.00;;;;;;4996809;28;20569;-66
2022/08/05 01:34:49;;;;;;;7.33;4.07;;;21.30;91.10;;;;;;4993083;28;20443;-66
2022/08/05 01:37:22;;;;;;;5.07;3.77;;;21.30;91.10;;;;;;4990854;28;20869;-66
2022/08/05 01:39:53;;;;;;;6.67;3.10;;;21.30;91.20;;;;;;4993178;28;20493;-66
2022/08/05 01:42:23;;;;;;;5.07;4.13;;;21.30;91.20;;;;;;5008305;28;20793;-66
2022/08/05 01:44:55;;;;;;;6.67;4.37;;;21.30;91.10;;;;;;5012616;28;20493;-66
2022/08/05 01:47:24;;;;;;;5.17;4.60;;;21.30;91.00;;;;;;5008201;28;20505;-66
2022/08/05 01:49:53;;;;;;;4.87;4.33;;;21.30;91.00;;;;;;5012459;28;20536;-66
2022/08/05 01:52:22;;;;;;;5.40;3.83;;;21.30;91.00;;;;;;4995955;28;20576;-66
2022/08/05 01:54:53;;;;;;;4.43;3.20;;;21.30;90.90;;;;;;4993128;28;20949;-66
2022/08/05 01:57:26;;;;;;;5.17;3.90;;;21.40;90.90;;;;;;5005066;28;20514;-66
2022/08/05 01:59:58;;;;;;;5.97;3.80;;;21.40;90.80;;;;;;5012530;28;20984;-66
2022/08/05 02:02:26;;;;;;;6.87;3.60;;;21.30;90.70;;;;;;4994867;28;20526;-66
2022/08/05 02:04:56;;;;;;;4.60;3.73;;;21.30;90.90;;;;;;4992439;28;20801;-66
2022/08/05 02:07:24;;;;;;;6.47;3.70;;;21.30;90.90;;;;;;5006347;28;20441;-66
2022/08/05 02:09:51;;;;;;;4.03;3.13;;;21.20;90.90;;;;;;5011940;28;20477;-66
2022/08/05 02:12:25;;;;;;;6.00;4.67;;;21.20;91.00;;;;;;4997253;28;20548;-66
2022/08/05 02:15:03;;;;;;;4.13;3.73;;;21.20;91.00;;;;;;4992869;28;20578;-66
2022/08/05 02:17:36;;;;;;;4.70;3.37;;;21.10;91.00;;;;;;5007781;28;20525;-66
2022/08/05 02:20:07;;;;;;;6.83;3.93;;;21.00;91.20;;;;;;5015561;28;20483;-66
2022/08/05 02:22:41;;;;;;;6.60;4.80;;;21.00;91.20;;;;;;5000215;28;20941;-66
2022/08/05 02:25:16;;;;;;;4.60;3.90;;;21.00;91.30;;;;;;4996136;28;20465;-67
2022/08/05 02:27:48;;;;;;;7.50;4.87;;;20.90;91.40;;;;;;5009762;28;20475;-66
2022/08/05 02:30:18;;;;;;;4.27;3.60;;;20.90;91.40;;;;;;5013567;28;20537;-70
2022/08/05 02:32:50;;;;;;;4.83;3.50;;;20.90;91.60;;;;;;4995781;28;20486;-66
2022/08/05 02:35:21;;;;;;;6.43;4.27;;;20.90;91.50;;;;;;4996014;28;20430;-69
2022/08/05 02:37:52;;;;;;;5.17;3.57;;;20.80;91.70;;;;;;4995508;28;20483;-66
2022/08/05 02:40:20;;;;;;;9.00;4.30;;;20.80;91.80;;;;;;4995789;28;20446;-66
2022/08/05 02:42:48;;;;;;;5.67;4.10;;;20.90;91.80;;;;;;5012404;28;20483;-66
2022/08/05 02:45:17;;;;;;;4.33;3.87;;;20.90;91.90;;;;;;5015144;28;20500;-66
2022/08/05 02:47:46;;;;;;;4.80;4.30;;;20.80;91.60;;;;;;4995368;28;20471;-66
2022/08/05 02:50:14;;;;;;;5.40;4.23;;;20.80;91.50;;;;;;4995519;28;20944;-66
2022/08/05 02:52:42;;;;;;;5.10;4.23;;;20.80;91.70;;;;;;5011131;28;20570;-66
2022/08/05 02:55:09;;;;;;;5.00;4.10;;;20.70;91.80;;;;;;5015138;28;20652;-66
2022/08/05 02:57:38;;;;;;;5.83;4.60;;;20.70;92.10;;;;;;4997145;28;20517;-66
2022/08/05 03:00:07;;;;;;;5.93;4.80;;;20.70;92.10;;;;;;4995452;28;20447;-66
2022/08/05 03:02:39;;;;;;;5.73;3.70;;;20.70;92.20;;;;;;5007168;28;20775;-66
2022/08/05 03:05:08;;;;;;;5.20;3.83;;;20.70;92.20;;;;;;5014928;28;20802;-66
2022/08/05 03:07:36;;;;;;;6.43;4.37;;;20.60;92.00;;;;;;4998538;28;20997;-66
2022/08/05 03:10:04;;;;;;;6.80;4.30;;;20.60;92.10;;;;;;4994064;28;20929;-66
2022/08/05 03:12:31;;;;;;;4.83;3.73;;;20.60;92.10;;;;;;5014468;28;20523;-66
2022/08/05 03:14:59;;;;;;;6.97;4.90;;;20.60;92.20;;;;;;5012943;28;20540;-70
2022/08/05 03:17:26;;;;;;;5.77;5.03;;;20.50;92.30;;;;;;4994557;28;20454;-66
2022/08/05 03:19:54;;;;;;;5.70;3.87;;;20.50;92.50;;;;;;4994996;28;20536;-66
2022/08/05 03:22:21;;;;;;;3.70;3.30;;;20.50;92.70;;;;;;5010416;28;20459;-66
2022/08/05 03:24:49;;;;;;;8.63;4.40;;;20.40;92.70;;;;;;4994100;28;20470;-66
2022/08/05 03:27:17;;;;;;;4.00;3.60;;;20.40;92.80;;;;;;5008947;28;20471;-66
2022/08/05 03:29:44;;;;;;;4.30;3.90;;;20.40;93.10;;;;;;5014323;28;20488;-66
2022/08/05 03:32:12;;;;;;;4.23;3.77;;;20.30;93.30;;;;;;4997571;28;20672;-66
2022/08/05 03:34:39;;;;;;;8.57;6.47;;;20.30;93.30;;;;;;4994602;28;20445;-66
2022/08/05 03:37:08;;;;;;;8.93;4.57;;;20.30;93.60;;;;;;5006881;28;20833;-66
2022/08/05 03:39:35;;;;;;;5.80;5.20;;;20.30;93.70;;;;;;5014353;28;20512;-66
2022/08/05 03:42:02;;;;;;;6.67;4.00;;;20.30;93.90;;;;;;5009789;28;20561;-66
2022/08/05 03:44:29;;;;;;;5.97;4.70;;;20.30;94.00;;;;;;5014354;28;20449;-66
2022/08/05 03:46:56;;;;;;;5.23;4.00;;;20.30;94.10;;;;;;4998570;28;20498;-66
2022/08/05 03:49:23;;;;;;;4.53;3.80;;;20.40;94.10;;;;;;4994020;28;20523;-66
2022/08/05 03:51:56;;;;;;;4.93;4.20;;;20.50;94.00;;;;;;5004729;28;20471;-66
2022/08/05 03:54:33;;;;;;;9.00;5.23;;;20.50;93.90;;;;;;5014030;28;20472;-66
2022/08/05 03:57:02;;;;;;;4.90;4.40;;;20.60;93.80;;;;;;4999864;28;20525;-68
2022/08/05 03:59:35;;;;;;;5.77;4.03;;;20.70;93.70;;;;;;4994443;28;20444;-68
2022/08/05 04:02:04;;;;;;;4.90;3.60;;;20.70;93.70;;;;;;5005511;28;20477;-66
2022/08/05 04:04:32;;;;;;;4.60;3.60;;;20.80;93.60;;;;;;5013063;28;20441;-68
2022/08/05 04:07:00;;;;;;;4.33;3.50;;;20.80;93.50;;;;;;5012843;28;20477;-68
2022/08/05 04:09:29;;;;;;;4.83;4.33;;;20.80;93.30;;;;;;5014266;28;20524;-66
2022/08/05 04:11:57;;;;;;;4.40;3.97;;;20.80;93.20;;;;;;5001847;28;20867;-66
2022/08/05 04:14:26;;;;;;;4.87;3.70;;;20.80;93.10;;;;;;5013469;28;20437;-66
2022/08/05 04:16:54;;;;;;;5.93;4.10;;;20.70;93.10;;;;;;5002733;28;20454;-66
2022/08/05 04:19:21;;;;;;;8.87;4.70;;;20.60;93.50;;;;;;4993746;28;20454;-66
2022/08/05 04:21:48;;;;;;;6.40;4.10;;;20.50;93.40;;;;;;5002269;28;20443;-66
2022/08/05 04:24:16;;;;;;;5.30;4.30;;;20.50;93.50;;;;;;4994779;28;20441;-66
2022/08/05 04:26:44;;;;;;;4.57;3.90;;;20.50;93.80;;;;;;5000949;28;20446;-66
2022/08/05 04:29:11;;;;;;;7.60;5.03;;;20.50;93.90;;;;;;5013126;28;20449;-66
2022/08/05 04:31:38;;;;;;;4.27;3.80;;;20.50;93.90;;;;;;5009315;28;20468;-67
2022/08/05 04:34:06;;;;;;;8.80;4.57;;;20.50;94.10;;;;;;5013128;28;20493;-66
2022/08/05 04:36:33;;;;;;;6.10;3.50;;;20.50;93.90;;;;;;5007222;28;20445;-66
2022/08/05 04:39:00;;;;;;;6.17;4.33;;;20.60;93.70;;;;;;4993342;28;20509;-67
2022/08/05 04:41:28;;;;;;;4.33;3.93;;;20.70;94.00;;;;;;4993882;28;20455;-66
2022/08/05 04:43:56;;;;;;;4.80;3.30;;;20.80;93.90;;;;;;4993875;28;20462;-66
2022/08/05 04:46:23;;;;;;;5.90;4.37;;;20.80;93.60;;;;;;4995642;28;20528;-66
2022/08/05 04:48:51;;;;;;;4.23;3.80;;;20.90;93.70;;;;;;5013059;28;20792;-66
2022/08/05 04:51:18;;;;;;;5.83;4.37;;;21.00;93.80;;;;;;5010845;28;20480;-66
2022/08/05 04:53:45;;;;;;;4.10;3.70;;;21.10;94.00;;;;;;5012936;28;20492;-66
2022/08/05 04:56:13;;;;;;;5.23;4.10;;;21.20;94.10;;;;;;5008228;28;20855;-67
2022/08/05 04:58:40;;;;;;;5.53;4.10;;;21.30;94.00;;;;;;5006443;28;20441;-66
2022/08/05 05:01:09;;;;;;;4.20;3.80;;;21.40;94.40;;;;;;5009947;28;20932;-66
2022/08/05 05:03:36;;;;;;;4.80;4.30;;;21.40;93.50;;;;;;4992942;28;20454;-66
2022/08/05 05:06:04;;;;;;;5.30;3.90;;;21.50;93.30;;;;;;4993739;28;20994;-66
2022/08/05 05:08:31;;;;;;;4.93;4.00;;;21.70;93.30;;;;;;5012782;28;20435;-66
2022/08/05 05:10:58;;;;;;;5.47;3.90;;;21.80;93.50;;;;;;5007324;28;20490;-68
2022/08/05 05:13:25;;;;;;;8.83;3.97;;;21.90;93.70;;;;;;5004557;28;20989;-66
2022/08/05 05:15:52;;;;;;;3.93;3.20;;;22.10;94.00;;;;;;5011023;28;20443;-66
2022/08/05 05:18:21;;;;;;;4.50;3.33;;;22.20;93.30;;;;;;5006588;28;20453;-67
2022/08/05 05:20:48;;;;;;;5.50;3.53;;;22.30;91.90;;;;;;5010756;28;20952;-66
2022/08/05 05:23:16;;;;;;;5.00;3.33;;;22.50;92.20;;;;;;5003301;28;20486;-69
2022/08/05 05:25:44;;;;;;;4.03;3.17;;;22.60;92.00;;;;;;5010810;28;20435;-66
2022/08/05 05:28:13;;;;;;;5.20;3.50;;;22.80;91.60;;;;;;5005205;28;20442;-66
2022/08/05 05:30:40;;;;;;;4.30;3.33;;;23.00;91.40;;;;;;5000422;28;20812;-67
2022/08/05 05:33:08;;;;;;;6.93;3.87;;;23.20;91.70;;;;;;5010304;28;20565;-67
2022/08/05 05:35:36;;;;;;;6.00;3.73;;;23.30;89.60;;;;;;5007701;28;20438;-67
2022/08/05 05:38:05;;;;;;;4.30;3.83;;;23.50;90.20;;;;;;5011235;28;20517;-67
2022/08/05 05:40:33;;;;;;;5.10;3.30;;;23.60;91.20;;;;;;5006946;28;20949;-67
2022/08/05 05:43:00;;;;;;;4.03;3.17;;;23.70;90.30;;;;;;5011401;28;20462;-67
2022/08/05 05:45:27;;;;;;;5.43;3.33;;;23.80;90.70;;;;;;5009204;28;20501;-67
2022/08/05 05:47:54;;;;;;;3.77;3.10;;;23.90;91.10;;;;;;5011499;28;20953;-66
2022/08/05 05:50:21;;;;;;;5.83;2.90;;;24.00;91.40;;;;;;5010081;28;20486;-67
2022/08/05 05:52:49;;;;;;;5.70;3.83;;;24.00;91.50;;;;;;5015108;28;20506;-66
2022/08/05 05:55:17;;;;;;;7.73;3.67;;;24.10;91.90;;;;;;5009044;28;20514;-67
2022/08/05 05:57:46;;;;;;;6.13;3.67;;;24.20;92.30;;;;;;5015014;28;20542;-66
2022/08/05 06:00:16;;;;;;;5.83;3.63;;;24.30;92.20;;;;;;5011535;28;20481;-66
2022/08/05 06:02:43;;;;;;;4.00;3.40;;;24.40;92.10;;;;;;4983991;28;20521;-70
2022/08/05 06:05:12;;;;;;;5.97;3.40;;;24.60;92.30;;;;;;5007139;28;20778;-67
2022/08/05 06:07:39;;;;;;;5.00;3.47;;;24.70;90.80;;;;;;5010334;28;20442;-67
2022/08/05 06:10:10;;;;;;;5.20;3.30;;;24.90;90.20;;;;;;5011834;28;20442;-71
2022/08/05 06:12:38;;;;;;;3.93;3.40;;;25.00;89.60;;;;;;4998937;28;20445;-69
2022/08/05 06:15:07;;;;;;;8.03;3.20;;;25.20;90.40;;;;;;4998907;28;20502;-67
2022/08/05 06:17:34;;;;;;;6.47;3.50;;;25.40;90.30;;;;;;5010401;28;20446;-67
2022/08/05 06:20:02;;;;;;;4.77;3.70;;;25.60;89.80;;;;;;5008202;28;20502;-67
2022/08/05 06:22:30;;;;;;;6.50;4.00;;;25.70;89.00;;;;;;5003689;28;20446;-67
2022/08/05 06:24:58;;;;;;;4.20;3.00;;;25.90;89.00;;;;;;5008200;28;20434;-66
2022/08/05 06:27:26;;;;;;;5.10;3.20;;;26.00;88.30;;;;;;5014035;28;20925;-67
2022/08/05 06:29:53;;;;;;;7.47;3.83;;;26.20;86.00;;;;;;5013718;28;20478;-66
2022/08/05 06:32:20;;;;;;;4.70;3.07;;;26.20;84.90;;;;;;5013779;28;20645;-66
2022/08/05 06:34:47;;;;;;;9.17;3.23;;;26.30;84.20;;;;;;5013454;28;20573;-67
2022/08/05 06:37:15;;;;;;;14.57;3.87;;;26.40;84.70;;;;;;5013720;28;20793;-68
2022/08/05 06:39:42;;;;;;;10.27;3.50;;;26.50;85.60;;;;;;5006112;28;20435;-67
2022/08/05 06:42:09;;;;;;;6.83;3.70;;;26.60;85.40;;;;;;5012092;28;20505;-66
2022/08/05 06:44:38;;;;;;;6.13;3.53;;;26.70;85.80;;;;;;5012999;28;20463;-67
2022/08/05 06:47:05;;;;;;;5.67;3.80;;;26.70;85.20;;;;;;5013083;28;20545;-68
2022/08/05 06:49:32;;;;;;;7.20;5.20;;;26.80;82.90;;;;;;5011800;28;20475;-68
2022/08/05 06:51:59;;;;;;;5.17;4.23;;;26.90;80.10;;;;;;5012951;28;20447;-67
2022/08/05 06:54:25;;;;;;;7.27;6.33;;;26.90;81.00;;;;;;5008177;28;20907;-66
2022/08/05 06:56:52;;;;;;;4.30;3.60;;;27.00;80.40;;;;;;5012375;28;20884;-67
2022/08/05 06:59:19;;;;;;;6.30;3.57;;;27.10;78.90;;;;;;5013889;28;20471;-66
2022/08/05 07:01:48;;;;;;;4.10;3.23;;;27.10;74.80;;;;;;5013425;28;21070;-67
2022/08/05 07:04:15;;;;;;;4.50;3.40;;;27.30;76.20;;;;;;5013170;28;20477;-67
2022/08/05 07:06:42;;;;;;;4.40;3.07;;;27.50;76.30;;;;;;5012907;28;20474;-67
2022/08/05 07:09:09;;;;;;;4.40;3.50;;;27.60;76.20;;;;;;5013358;28;20538;-67
2022/08/05 07:11:36;;;;;;;4.17;3.50;;;27.90;75.70;;;;;;5013355;28;20470;-67
2022/08/05 07:16:49;;;;;;;9.93;5.37;;;28.30;74.80;;;;;;5013684;28;20445;-67
2022/08/05 07:19:16;;;;;;;5.90;4.67;;;28.50;72.80;;;;;;5013165;28;20430;-67
2022/08/05 07:21:44;;;;;;;6.33;3.60;;;28.60;71.80;;;;;;5012781;28;20437;-67
2022/08/05 07:24:11;;;;;;;5.60;3.80;;;28.70;70.20;;;;;;5013377;28;20529;-67
2022/08/05 07:26:38;;;;;;;5.13;3.13;;;28.80;69.30;;;;;;5013404;28;20471;-67
2022/08/05 07:29:05;;;;;;;6.93;3.53;;;28.90;67.80;;;;;;5012618;28;20997;-68
2022/08/05 07:31:32;;;;;;;4.00;3.60;;;29.00;68.00;;;;;;5013176;28;20439;-67
2022/08/05 07:34:01;;;;;;;4.87;4.20;;;29.00;66.30;;;;;;5013209;28;20576;-66
2022/08/05 07:36:28;;;;;;;7.13;2.60;;;29.20;66.30;;;;;;5012874;28;20602;-67
2022/08/05 07:38:56;;;;;;;6.03;3.40;;;29.30;64.90;;;;;;5012755;28;20466;-67
2022/08/05 07:41:25;;;;;;;5.10;3.00;;;29.30;64.00;;;;;;5012786;28;20474;-67
2022/08/05 07:43:52;;;;;;;5.80;3.27;;;29.40;64.00;;;;;;5013089;28;20521;-67
2022/08/05 07:46:19;;;;;;;3.60;2.97;;;29.40;64.10;;;;;;5012723;28;20557;-67
2022/08/05 07:48:46;;;;;;;4.07;3.20;;;29.40;64.20;;;;;;5008554;28;20470;-67
2022/08/05 07:51:15;;;;;;;3.17;2.67;;;29.40;64.20;;;;;;5012496;28;20470;-67
2022/08/05 07:53:42;;;;;;;7.63;3.47;;;29.40;63.30;;;;;;5012578;28;20489;-66
2022/08/05 07:56:09;;;;;;;4.77;3.00;;;29.40;62.60;;;;;;5012979;28;20533;-66
2022/08/05 07:58:36;;;;;;;3.60;2.73;;;29.40;63.00;;;;;;5012044;28;20856;-67
2022/08/05 08:01:03;;;;;;;3.70;3.00;;;29.40;63.40;;;;;;5012253;28;20475;-67
2022/08/05 08:03:30;;;;;;;4.60;2.70;;;29.40;61.00;;;;;;5012778;28;20510;-67
2022/08/05 08:05:57;;;;;;;3.10;2.70;;;29.40;60.90;;;;;;5012682;28;20525;-67
2022/08/05 08:08:26;;;;;;;6.23;3.10;;;29.40;60.90;;;;;;5012282;28;20466;-67
2022/08/05 08:10:54;;;;;;;4.73;2.90;;;29.40;60.30;;;;;;5012460;28;20501;-66
2022/08/05 08:13:21;;;;;;;6.30;3.13;;;29.50;61.00;;;;;;5012561;28;20450;-67
2022/08/05 08:15:48;;;;;;;3.90;2.87;;;29.60;61.10;;;;;;5011294;28;20794;-69
2022/08/05 08:18:15;;;;;;;4.80;3.30;;;29.60;60.80;;;;;;5003750;28;21136;-66
2022/08/05 08:20:42;;;;;;;7.37;3.30;;;29.70;59.90;;;;;;5018712;28;20458;-67
2022/08/05 08:23:09;;;;;;;3.63;3.23;;;29.70;59.30;;;;;;5015585;28;20486;-67
2022/08/05 08:25:37;;;;;;;5.20;3.30;;;29.80;60.00;;;;;;5016350;28;20530;-66
2022/08/05 08:28:04;;;;;;;8.30;4.20;;;29.80;59.50;;;;;;5015574;28;20524;-67
2022/08/05 08:30:31;;;;;;;9.43;4.23;;;29.80;59.60;;;;;;5016159;28;20534;-67
2022/08/05 08:32:58;;;;;;;8.53;3.83;;;29.80;58.70;;;;;;5017468;28;20454;-66
2022/08/05 08:35:25;;;;;;;4.80;3.03;;;29.80;59.70;;;;;;5016944;28;20513;-67
2022/08/05 08:37:52;;;;;;;6.47;4.00;;;29.80;59.40;;;;;;5012925;28;20508;-72
2022/08/05 08:40:20;;;;;;;8.13;3.40;;;29.80;59.40;;;;;;5017719;28;21416;-67
2022/08/05 08:42:53;;;;;;;4.87;3.13;;;29.90;59.70;;;;;;5015333;28;20863;-67
2022/08/05 08:45:21;;;;;;;6.80;3.70;;;30.00;60.30;;;;;;5014210;28;20474;-66
2022/08/05 08:47:50;;;;;;;4.97;3.67;;;30.20;60.50;;;;;;5017457;28;20454;-67
2022/08/05 08:50:19;;;;;;;5.10;3.47;;;30.40;59.20;;;;;;5015259;28;20439;-67
2022/08/05 08:52:50;;;;;;;4.57;3.13;;;30.50;58.00;;;;;;5017233;28;20541;-67
2022/08/05 08:55:18;;;;;;;6.80;3.70;;;30.60;58.30;;;;;;5017372;28;20500;-67
2022/08/05 08:57:46;;;;;;;8.23;4.40;;;30.80;57.40;;;;;;5015631;28;20478;-67
2022/08/05 09:00:15;;;;;;;8.83;3.70;;;30.90;56.70;;;;;;5016658;28;20537;-66
2022/08/05 09:02:44;;;;;;;4.97;3.60;;;31.00;56.40;;;;;;5014212;28;20537;-67
2022/08/05 09:05:12;;;;;;;8.47;4.60;;;31.20;55.70;;;;;;5015444;28;20529;-67
2022/08/05 09:07:39;;;;;;;5.87;3.60;;;31.50;57.00;;;;;;5016126;28;20482;-68
2022/08/05 09:10:07;;;;;;;5.00;3.43;;;32.00;56.60;;;;;;5017086;28;20434;-67
2022/08/05 09:12:34;;;;;;;5.77;3.57;;;32.50;57.70;;;;;;5015011;28;20454;-67
2022/08/05 09:15:02;;;;;;;4.90;4.10;;;32.90;54.30;;;;;;5016311;28;20569;-67
2022/08/05 09:17:31;;;;;;;4.80;3.23;;;33.20;54.70;;;;;;5017344;28;20445;-67
2022/08/05 09:19:59;;;;;;;5.20;3.77;;;33.40;52.80;;;;;;5013767;28;20514;-67
2022/08/05 09:22:26;;;;;;;4.20;3.23;;;33.60;52.70;;;;;;5013171;28;20861;-67
2022/08/05 09:25:00;;;;;;;19.30;3.90;;;33.70;53.10;;;;;;5017857;28;20442;-67
2022/08/05 09:27:32;;;;;;;6.80;3.93;;;33.70;51.70;;;;;;5013552;28;20522;-66
2022/08/05 09:30:00;;;;;;;10.37;5.37;;;33.70;50.70;;;;;;5020549;28;20927;-67
2022/08/05 09:32:36;;;;;;;5.43;4.03;;;33.70;50.50;;;;;;5021798;28;20537;-67
2022/08/05 09:35:11;;;;;;;8.10;3.77;;;33.60;50.50;;;;;;5014754;28;20832;-72
2022/08/05 09:37:49;;;;;;;5.33;3.97;;;33.50;49.40;;;;;;5021083;28;20442;-66
2022/08/05 09:40:35;;;;;;;5.17;3.90;;;33.30;50.30;;;;;;5019277;28;20446;-67
2022/08/05 09:43:05;;;;;;;6.80;4.07;;;33.20;50.10;;;;;;5015602;28;20452;-67
2022/08/05 09:45:39;;;;;;;7.63;4.07;;;33.20;50.50;;;;;;5014604;28;20565;-67
2022/08/05 09:48:24;;;;;;;5.53;3.90;;;33.20;51.00;;;;;;5012372;28;20449;-67
2022/08/05 09:50:54;;;;;;;6.63;3.70;;;33.30;50.50;;;;;;5013237;28;20924;-67
2022/08/05 09:53:21;;;;;;;4.73;3.90;;;33.30;50.40;;;;;;5014271;28;20856;-66
2022/08/05 09:55:52;;;;;;;6.80;3.80;;;33.30;50.40;;;;;;5014235;28;20572;-67
2022/08/05 09:58:20;;;;;;;6.83;4.30;;;33.40;50.90;;;;;;5013872;28;20935;-73
2022/08/05 10:00:55;;;;;;;6.37;3.60;;;33.40;50.90;;;;;;5017540;28;20426;-66
2022/08/05 10:03:24;;;;;;;3.63;3.33;;;33.60;50.60;;;;;;5015313;28;20533;-67
2022/08/05 10:06:06;;;;;;;5.43;3.10;;;33.70;50.10;;;;;;5016772;28;20453;-67
2022/08/05 10:08:34;;;;;;;5.50;4.07;;;33.80;49.60;;;;;;5016665;28;20516;-67
2022/08/05 10:11:04;;;;;;;4.57;4.00;;;33.80;49.50;;;;;;5016215;28;20481;-67
2022/08/05 10:13:34;;;;;;;7.10;4.23;;;33.80;50.30;;;;;;5018012;28;20435;-67
2022/08/05 10:16:02;;;;;;;8.17;4.50;;;33.80;50.40;;;;;;5014550;28;20573;-67
2022/08/05 10:18:31;;;;;;;7.20;3.60;;;33.80;50.50;;;;;;5014354;28;20529;-67
2022/08/05 10:21:01;;;;;;;5.73;3.60;;;33.80;50.80;;;;;;5014548;28;20438;-67
2022/08/05 10:23:31;;;;;;;5.90;3.53;;;33.70;49.90;;;;;;5014644;28;20439;-67
2022/08/05 10:26:00;;;;;;;6.00;4.50;;;33.60;49.70;;;;;;5014151;28;20435;-68
2022/08/05 10:28:28;;;;;;;5.93;3.67;;;33.60;50.10;;;;;;5011087;28;20439;-67
2022/08/05 10:30:55;;;;;;;6.50;3.70;;;33.60;49.70;;;;;;5014351;28;20434;-67
2022/08/05 10:33:26;;;;;;;11.80;4.40;;;33.60;49.50;;;;;;5014314;28;20522;-67
2022/08/05 10:35:56;;;;;;;5.10;3.00;;;33.60;49.20;;;;;;5010320;28;20525;-67
2022/08/05 10:38:26;;;;;;;6.63;3.50;;;33.60;49.00;;;;;;5013135;28;20530;-67
2022/08/05 10:41:02;;;;;;;6.93;3.90;;;33.60;50.30;;;;;;5013900;28;20536;-67
2022/08/05 10:43:42;;;;;;;6.13;3.50;;;33.70;50.70;;;;;;5011382;28;20766;-68
2022/08/05 10:46:13;;;;;;;8.73;3.70;;;33.80;50.70;;;;;;5013513;28;20498;-67
2022/08/05 10:48:40;;;;;;;8.07;3.87;;;33.90;50.30;;;;;;5013848;28;20924;-67
2022/08/05 10:51:10;;;;;;;8.70;4.07;;;34.00;49.80;;;;;;5013804;28;20501;-67
2022/08/05 10:53:41;;;;;;;5.67;3.63;;;34.10;49.60;;;;;;5013390;28;20497;-67
2022/08/05 10:56:09;;;;;;;4.70;3.53;;;34.10;49.50;;;;;;5014093;28;20822;-67
2022/08/05 10:58:46;;;;;;;4.23;3.07;;;34.20;49.80;;;;;;5013777;28;20513;-69
2022/08/05 11:01:13;;;;;;;6.53;3.60;;;34.30;49.40;;;;;;5010030;28;20549;-67
2022/08/05 11:04:03;;;;;;;6.93;3.60;;;34.30;48.20;;;;;;5012977;28;20482;-66
2022/08/05 11:06:32;;;;;;;6.30;2.90;;;34.30;48.60;;;;;;5010679;28;20864;-66
2022/08/05 11:09:17;;;;;;;7.27;3.23;;;34.40;48.60;;;;;;5013351;28;20993;-67
2022/08/05 11:11:46;;;;;;;4.53;3.60;;;34.40;48.50;;;;;;5013203;28;20481;-68
2022/08/05 11:14:13;;;;;;;7.27;3.37;;;34.50;47.50;;;;;;5012968;28;20562;-67
2022/08/05 11:16:40;;;;;;;4.67;3.20;;;34.60;46.70;;;;;;5013061;28;20482;-66
2022/08/05 11:19:30;;;;;;;7.63;3.67;;;34.70;48.30;;;;;;5013398;28;20449;-66
2022/08/05 11:22:37;;;;;;;5.13;3.40;;;34.70;47.90;;;;;;5012911;28;20470;-68
2022/08/05 11:25:30;;;;;;;5.33;3.40;;;34.50;47.40;;;;;;5011029;28;20439;-67
2022/08/05 11:27:57;;;;;;;6.40;4.00;;;34.30;46.60;;;;;;5010706;28;20453;-66
2022/08/05 11:30:24;;;;;;;4.00;3.00;;;34.10;47.00;;;;;;5013030;28;20481;-67
2022/08/05 11:33:11;;;;;;;9.40;4.20;;;33.90;47.40;;;;;;5012070;28;20526;-67
2022/08/05 11:36:00;;;;;;;4.33;3.20;;;33.80;47.40;;;;;;5012785;28;20486;-67
2022/08/05 11:38:53;;;;;;;21.80;3.70;;;33.70;47.30;;;;;;4989375;28;20793;-73
2022/08/05 11:41:21;;;;;;;5.93;3.60;;;33.50;48.80;;;;;;5008253;28;20841;-67
2022/08/05 11:43:57;;;;;;;10.40;4.23;;;33.40;48.90;;;;;;5008357;28;20477;-66
2022/08/05 11:46:28;;;;;;;5.20;3.50;;;33.20;48.80;;;;;;5007963;28;20462;-66
2022/08/05 11:48:58;;;;;;;5.63;3.40;;;33.00;48.40;;;;;;5012386;28;20427;-67
2022/08/05 11:51:26;;;;;;;6.47;3.03;;;32.90;48.10;;;;;;5013032;28;20427;-67
2022/08/05 11:53:57;;;;;;;4.17;3.33;;;32.70;48.20;;;;;;5012539;28;20470;-66
2022/08/05 11:56:24;;;;;;;10.33;3.80;;;32.50;48.90;;;;;;5008154;28;20541;-67
2022/08/05 11:58:51;;;;;;;4.60;3.97;;;32.30;49.60;;;;;;5009078;28;21009;-67
2022/08/05 12:01:20;;;;;;;6.30;3.57;;;32.20;49.50;;;;;;5012938;28;20453;-66
2022/08/05 12:03:50;;;;;;;7.70;3.80;;;32.00;50.50;;;;;;5012731;28;20470;-68
2022/08/05 12:06:19;;;;;;;7.30;4.23;;;31.90;50.70;;;;;;5008707;28;20434;-67
2022/08/05 12:08:47;;;;;;;8.17;4.07;;;31.80;50.90;;;;;;5012971;28;20490;-66
2022/08/05 12:11:19;;;;;;;6.97;3.97;;;31.80;50.80;;;;;;5012516;28;20485;-67
2022/08/05 12:13:56;;;;;;;3.60;3.00;;;31.80;51.10;;;;;;5008014;28;20446;-66
2022/08/05 12:16:24;;;;;;;4.10;3.10;;;31.80;51.70;;;;;;5012251;28;20525;-66
2022/08/05 12:18:51;;;;;;;9.53;4.03;;;31.80;51.90;;;;;;5012072;28;20854;-67
2022/08/05 12:21:21;;;;;;;4.60;3.50;;;31.80;53.30;;;;;;5012388;28;20474;-66
2022/08/05 12:23:57;;;;;;;4.97;3.60;;;31.80;52.50;;;;;;5012346;28;20514;-66
2022/08/05 12:26:30;;;;;;;11.40;4.23;;;31.80;51.40;;;;;;5012013;28;20470;-67
2022/08/05 12:28:57;;;;;;;8.83;4.03;;;31.90;52.10;;;;;;5012224;28;20537;-66
2022/08/05 12:31:24;;;;;;;5.90;3.80;;;31.90;51.80;;;;;;5011946;28;20533;-66
2022/08/05 12:33:53;;;;;;;7.30;4.73;;;31.90;51.10;;;;;;5011718;28;20446;-67
2022/08/05 12:36:21;;;;;;;6.13;3.70;;;31.70;51.00;;;;;;5012095;28;20500;-67
2022/08/05 12:38:48;;;;;;;7.63;3.47;;;31.60;51.50;;;;;;5012065;28;20447;-66
2022/08/05 12:41:16;;;;;;;5.47;3.23;;;31.60;52.50;;;;;;5011977;28;20439;-66
2022/08/05 12:43:56;;;;;;;5.23;3.67;;;31.50;53.10;;;;;;5011809;28;20478;-66
2022/08/05 12:46:24;;;;;;;7.40;4.43;;;31.40;52.70;;;;;;5011795;28;20517;-66
2022/08/05 12:48:59;;;;;;;6.67;3.87;;;31.40;52.90;;;;;;5011619;28;20478;-67
2022/08/05 12:51:27;;;;;;;4.97;3.00;;;31.40;51.90;;;;;;5012014;28;20449;-66
2022/08/05 12:54:01;;;;;;;6.07;4.07;;;31.50;51.90;;;;;;5011864;28;20538;-66
2022/08/05 12:56:29;;;;;;;4.40;3.83;;;31.60;52.60;;;;;;5011521;28;20854;-67
2022/08/05 12:59:14;;;;;;;5.90;3.70;;;31.60;52.70;;;;;;5011768;28;20457;-66
2022/08/05 13:01:42;;;;;;;7.07;4.07;;;31.60;52.60;;;;;;5007640;28;20514;-66